createdAt,value
2023-11-30T00:01:14.726Z,59.27
2023-11-30T00:03:44.457Z,59.97
2023-11-30T00:06:14.815Z,60.77
2023-11-30T00:08:43.376Z,59.13
2023-11-30T00:11:14.102Z,61.73
2023-11-30T00:13:42.839Z,62.37
2023-11-30T00:16:12.027Z,62.00
2023-11-30T00:18:40.776Z,62.17
2023-11-30T00:21:09.644Z,62.37
2023-11-30T00:23:39.662Z,56.60
2023-11-30T00:26:08.632Z,58.60
2023-11-30T00:28:37.222Z,69.10
2023-11-30T00:31:06.606Z,63.30
2023-11-30T00:33:35.272Z,69.10
2023-11-30T00:36:04.025Z,67.17
2023-11-30T00:38:32.696Z,63.27
2023-11-30T00:41:02.761Z,66.40
2023-11-30T00:43:31.319Z,59.77
2023-11-30T00:46:06.840Z,65.07
2023-11-30T00:48:38.494Z,60.00
2023-11-30T00:51:10.123Z,68.97
2023-11-30T00:53:38.802Z,63.83
2023-11-30T00:56:12.192Z,66.00
2023-11-30T00:58:40.844Z,62.40
2023-11-30T01:01:09.730Z,68.83
2023-11-30T01:03:38.523Z,67.80
2023-11-30T01:06:07.836Z,68.40
2023-11-30T01:08:36.451Z,66.70
2023-11-30T01:11:05.297Z,64.97
2023-11-30T01:13:35.255Z,66.40
2023-11-30T01:16:03.993Z,66.47
2023-11-30T01:18:32.694Z,63.67
2023-11-30T01:21:01.438Z,65.27
2023-11-30T01:23:30.307Z,65.33
2023-11-30T01:25:58.834Z,68.17
2023-11-30T01:28:27.539Z,63.47
2023-11-30T01:30:57.520Z,68.50
2023-11-30T01:33:26.219Z,65.20
2023-11-30T01:35:55.540Z,70.37
2023-11-30T01:38:24.167Z,71.70
2023-11-30T01:40:52.712Z,66.30
2023-11-30T01:43:23.551Z,68.20
2023-11-30T01:46:02.568Z,68.30
2023-11-30T01:48:34.626Z,68.83
2023-11-30T01:51:06.037Z,65.27
2023-11-30T01:53:35.312Z,64.17
2023-11-30T01:56:04.329Z,71.13
2023-11-30T01:58:33.342Z,74.37
2023-11-30T02:01:02.381Z,69.03
2023-11-30T02:03:31.817Z,71.90
2023-11-30T02:06:02.524Z,64.07
2023-11-30T02:08:31.133Z,70.07
2023-11-30T02:10:59.820Z,72.63
2023-11-30T02:13:28.544Z,68.67
2023-11-30T02:15:57.169Z,66.43
2023-11-30T02:18:25.855Z,70.90
2023-11-30T02:20:54.450Z,67.87
2023-11-30T02:23:24.479Z,70.77
2023-11-30T02:25:53.169Z,64.60
2023-11-30T02:28:21.916Z,60.50
2023-11-30T02:30:51.489Z,65.17
2023-11-30T02:33:20.137Z,66.67
2023-11-30T02:35:48.871Z,67.70
2023-11-30T02:38:17.539Z,64.03
2023-11-30T02:40:47.649Z,71.73
2023-11-30T02:43:16.192Z,66.27
2023-11-30T02:45:44.751Z,64.73
2023-11-30T02:48:13.568Z,65.73
2023-11-30T02:50:42.155Z,69.70
2023-11-30T02:53:10.751Z,66.17
2023-11-30T02:55:39.322Z,69.13
2023-11-30T02:58:09.361Z,70.33
2023-11-30T03:00:38.026Z,68.03
2023-11-30T03:03:06.938Z,69.80
2023-11-30T03:05:35.577Z,69.47
2023-11-30T03:08:04.150Z,70.60
2023-11-30T03:10:32.683Z,74.93
2023-11-30T03:13:01.335Z,68.33
2023-11-30T03:15:32.948Z,68.33
2023-11-30T03:18:01.772Z,63.50
2023-11-30T03:20:30.638Z,63.40
2023-11-30T03:22:59.311Z,65.17
2023-11-30T03:25:27.949Z,69.43
2023-11-30T03:27:56.544Z,69.87
2023-11-30T03:30:24.141Z,65.97
2023-11-30T03:32:54.297Z,70.00
2023-11-30T03:35:23.225Z,62.47
2023-11-30T03:37:52.333Z,70.80
2023-11-30T03:40:21.012Z,67.97
2023-11-30T03:42:49.699Z,63.67
2023-11-30T03:45:18.432Z,66.03
2023-11-30T03:47:47.101Z,64.27
2023-11-30T03:50:17.259Z,64.33
2023-11-30T03:52:46.148Z,65.67
2023-11-30T03:55:14.744Z,67.73
2023-11-30T03:57:43.272Z,73.27
2023-11-30T04:00:14.315Z,68.93
2023-11-30T04:02:43.803Z,67.83
2023-11-30T04:05:14.692Z,66.77
2023-11-30T04:07:44.865Z,64.20
2023-11-30T04:10:14.332Z,69.53
2023-11-30T04:12:43.455Z,68.10
2023-11-30T04:15:12.484Z,71.60
2023-11-30T04:17:41.207Z,63.73
2023-11-30T04:20:11.253Z,65.37
2023-11-30T04:22:39.943Z,64.83
2023-11-30T04:25:10.820Z,66.10
2023-11-30T04:27:39.860Z,69.37
2023-11-30T04:30:08.813Z,60.97
2023-11-30T04:32:37.445Z,64.77
2023-11-30T04:35:06.865Z,63.17
2023-11-30T04:37:35.498Z,63.07
2023-11-30T04:40:04.425Z,66.57
2023-11-30T04:42:34.738Z,63.93
2023-11-30T04:45:04.154Z,65.57
2023-11-30T04:47:33.021Z,63.97
2023-11-30T04:50:01.655Z,60.80
2023-11-30T04:52:30.442Z,62.87
2023-11-30T04:54:59.068Z,66.30
2023-11-30T04:57:28.001Z,62.07
2023-11-30T04:59:57.998Z,63.87
2023-11-30T05:02:26.682Z,57.73
2023-11-30T05:04:55.468Z,61.57
2023-11-30T05:07:24.200Z,61.40
2023-11-30T05:09:52.788Z,61.23
2023-11-30T05:12:21.421Z,57.57
2023-11-30T05:14:50.046Z,59.57
2023-11-30T05:17:20.073Z,59.50
2023-11-30T05:19:48.868Z,60.83
2023-11-30T05:22:17.427Z,57.70
2023-11-30T05:24:46.064Z,55.97
2023-11-30T05:27:14.930Z,61.27
2023-11-30T05:29:43.827Z,61.23
2023-11-30T05:32:12.543Z,58.70
2023-11-30T05:34:42.506Z,58.63
2023-11-30T05:37:11.094Z,63.20
2023-11-30T05:39:39.709Z,61.47
2023-11-30T05:42:11.370Z,57.40
2023-11-30T05:44:39.971Z,61.27
2023-11-30T05:47:08.849Z,59.10
2023-11-30T05:49:37.495Z,60.27
2023-11-30T05:52:07.774Z,60.87
2023-11-30T05:54:36.393Z,57.67
2023-11-30T05:57:05.252Z,56.07
2023-11-30T05:59:34.621Z,60.53
2023-11-30T06:02:03.350Z,57.53
2023-11-30T06:04:32.656Z,52.43
2023-11-30T06:07:01.750Z,57.60
2023-11-30T06:09:31.806Z,52.47
2023-11-30T06:12:00.499Z,56.93
2023-11-30T06:14:29.315Z,55.17
2023-11-30T06:16:57.921Z,57.83
2023-11-30T06:19:26.517Z,55.80
2023-11-30T06:21:55.089Z,61.70
2023-11-30T06:24:23.823Z,58.23
2023-11-30T06:26:54.030Z,63.50
2023-11-30T06:29:22.849Z,56.37
2023-11-30T06:31:51.919Z,62.63
2023-11-30T06:34:20.728Z,65.73
2023-11-30T06:36:49.277Z,59.40
2023-11-30T06:39:17.993Z,55.30
2023-11-30T06:41:52.340Z,67.33
2023-11-30T06:44:23.685Z,72.23
2023-11-30T06:46:52.296Z,67.33
2023-11-30T06:49:20.941Z,59.70
2023-11-30T06:51:49.541Z,70.13
2023-11-30T06:54:18.446Z,64.10
2023-11-30T06:56:47.117Z,62.10
2023-11-30T06:59:15.695Z,59.63
2023-11-30T07:01:45.774Z,62.73
2023-11-30T07:04:14.895Z,64.83
2023-11-30T07:06:43.522Z,57.83
2023-11-30T07:09:13.826Z,59.10
2023-11-30T07:11:44.090Z,63.70
2023-11-30T07:14:13.073Z,58.87
2023-11-30T07:16:42.016Z,60.20
2023-11-30T07:19:12.284Z,60.40
2023-11-30T07:21:40.933Z,55.77
2023-11-30T07:24:13.269Z,59.10
2023-11-30T07:26:42.342Z,60.30
2023-11-30T07:29:11.467Z,55.40
2023-11-30T07:31:40.037Z,59.87
2023-11-30T07:34:08.697Z,57.53
2023-11-30T07:36:39.060Z,53.43
2023-11-30T07:39:07.986Z,51.17
2023-11-30T07:41:36.723Z,54.37
2023-11-30T07:44:06.415Z,51.70
2023-11-30T07:46:35.769Z,55.80
2023-11-30T07:49:05.637Z,50.97
2023-11-30T07:51:34.288Z,51.53
2023-11-30T07:54:04.629Z,50.67
2023-11-30T07:56:33.295Z,53.77
2023-11-30T07:59:01.911Z,56.70
2023-11-30T08:01:30.660Z,50.13
2023-11-30T08:03:59.397Z,49.13
2023-11-30T08:06:28.210Z,52.23
2023-11-30T08:08:56.800Z,51.63
2023-11-30T08:11:26.860Z,49.43
2023-11-30T08:13:55.653Z,50.30
2023-11-30T08:16:25.015Z,51.63
2023-11-30T08:18:54.027Z,53.03
2023-11-30T08:21:23.272Z,52.83
2023-11-30T08:23:52.006Z,52.90
2023-11-30T08:26:29.691Z,52.50
2023-11-30T08:28:59.696Z,52.43
2023-11-30T08:31:28.579Z,48.87
2023-11-30T08:33:57.989Z,56.30
2023-11-30T08:36:26.784Z,54.33
2023-11-30T08:38:55.444Z,53.10
2023-11-30T08:41:24.093Z,61.30
2023-11-30T08:43:53.076Z,53.10
2023-11-30T08:46:23.266Z,55.77
2023-11-30T08:48:52.091Z,57.23
2023-11-30T08:51:20.820Z,52.93
2023-11-30T08:53:49.445Z,56.13
2023-11-30T08:56:18.288Z,58.33
2023-11-30T08:58:46.987Z,53.87
2023-11-30T09:01:15.785Z,59.97
2023-11-30T09:03:46.293Z,52.97
2023-11-30T09:06:15.159Z,52.63
2023-11-30T09:08:43.840Z,54.40
2023-11-30T09:11:12.570Z,52.50
2023-11-30T09:13:41.198Z,51.90
2023-11-30T09:16:11.552Z,57.27
2023-11-30T09:18:40.263Z,52.57
2023-11-30T09:21:10.991Z,51.57
2023-11-30T09:23:39.555Z,52.20
2023-11-30T09:26:09.263Z,51.13
2023-11-30T09:28:38.646Z,47.92
2023-11-30T09:31:09.956Z,50.77
2023-11-30T09:33:38.737Z,50.45
2023-11-30T09:36:07.999Z,51.70
2023-11-30T09:38:38.140Z,50.50
2023-11-30T09:41:08.307Z,56.67
2023-11-30T09:43:37.282Z,50.00
2023-11-30T09:46:08.197Z,57.30
2023-11-30T09:48:37.010Z,53.87
2023-11-30T09:51:06.228Z,49.27
2023-11-30T09:53:37.530Z,50.20
2023-11-30T09:56:06.875Z,52.87
2023-11-30T09:58:35.933Z,50.40
2023-11-30T10:01:04.630Z,49.33
2023-11-30T10:03:34.929Z,46.30
2023-11-30T10:06:03.663Z,48.13
2023-11-30T10:08:32.318Z,44.03
2023-11-30T10:11:03.126Z,41.20
2023-11-30T10:13:32.477Z,43.53
2023-11-30T10:16:01.185Z,42.67
2023-11-30T10:18:31.760Z,37.93
2023-11-30T10:21:00.600Z,39.40
2023-11-30T10:23:29.252Z,40.60
2023-11-30T10:25:58.846Z,39.23
2023-11-30T10:28:29.139Z,40.77
2023-11-30T10:31:02.841Z,40.53
2023-11-30T10:33:36.754Z,40.25
2023-11-30T10:36:07.097Z,39.87
2023-11-30T10:38:36.471Z,33.77
2023-11-30T10:41:10.663Z,37.23
2023-11-30T10:43:50.737Z,36.30
2023-11-30T10:46:20.788Z,33.40
2023-11-30T10:48:49.571Z,29.00
2023-11-30T10:51:18.737Z,25.73
2023-11-30T10:54:00.457Z,25.80
2023-11-30T10:56:31.962Z,23.27
2023-11-30T10:59:02.697Z,23.15
2023-11-30T11:01:50.870Z,20.77
2023-11-30T11:04:26.064Z,21.33
2023-11-30T11:07:03.249Z,23.83
2023-11-30T11:09:42.878Z,21.97
2023-11-30T11:12:21.400Z,24.40
2023-11-30T11:14:52.008Z,23.80
2023-11-30T11:17:23.392Z,20.13
2023-11-30T11:19:55.059Z,27.87
2023-11-30T11:22:25.277Z,22.83
2023-11-30T11:24:59.274Z,23.63
2023-11-30T11:27:32.040Z,26.03
2023-11-30T11:30:06.643Z,25.50
2023-11-30T11:32:37.161Z,25.53
2023-11-30T11:35:06.733Z,32.53
2023-11-30T11:37:35.625Z,25.43
2023-11-30T11:40:04.921Z,24.03
2023-11-30T11:42:34.257Z,26.73
2023-11-30T11:45:05.852Z,24.77
2023-11-30T11:47:34.601Z,20.73
2023-11-30T11:50:04.581Z,19.13
2023-11-30T11:52:33.313Z,18.40
2023-11-30T11:55:05.305Z,21.33
2023-11-30T11:57:36.323Z,18.38
2023-11-30T12:00:08.754Z,18.27
2023-11-30T12:02:37.499Z,19.70
2023-11-30T12:05:11.265Z,16.53
2023-11-30T12:07:50.864Z,18.40
2023-11-30T12:10:31.292Z,18.90
2023-11-30T12:13:01.620Z,20.47
2023-11-30T12:15:32.397Z,22.07
2023-11-30T12:18:02.255Z,19.77
2023-11-30T12:20:32.440Z,20.63
2023-11-30T12:23:02.250Z,18.37
2023-11-30T12:25:31.016Z,18.47
2023-11-30T12:28:00.097Z,19.47
2023-11-30T12:30:29.268Z,19.53
2023-11-30T12:32:59.802Z,18.60
2023-11-30T12:35:31.721Z,19.93
2023-11-30T12:38:00.497Z,17.90
2023-11-30T12:40:29.201Z,19.93
2023-11-30T12:43:00.026Z,20.77
2023-11-30T12:45:28.781Z,19.47
2023-11-30T12:47:59.010Z,20.50
2023-11-30T12:50:27.869Z,20.27
2023-11-30T12:52:57.011Z,21.43
2023-11-30T12:55:26.004Z,22.90
2023-11-30T12:57:54.782Z,22.93
2023-11-30T13:00:23.711Z,20.83
2023-11-30T13:02:53.103Z,22.87
2023-11-30T13:05:24.290Z,21.97
2023-11-30T13:07:54.784Z,20.67
2023-11-30T13:10:25.146Z,23.60
2023-11-30T13:12:53.966Z,22.23
2023-11-30T13:15:22.690Z,20.97
2023-11-30T13:17:52.164Z,24.00
2023-11-30T13:20:22.505Z,24.73
2023-11-30T13:22:51.207Z,25.67
2023-11-30T13:25:19.958Z,25.40
2023-11-30T13:27:48.958Z,24.00
2023-11-30T13:30:19.378Z,26.77
2023-11-30T13:32:48.676Z,23.10
2023-11-30T13:35:17.641Z,24.83
2023-11-30T13:37:49.583Z,21.53
2023-11-30T13:40:21.032Z,24.00
2023-11-30T13:42:50.232Z,22.53
2023-11-30T13:45:25.092Z,22.83
2023-11-30T13:47:53.966Z,25.97
2023-11-30T13:50:36.646Z,26.67
2023-11-30T13:53:07.723Z,22.43
2023-11-30T13:55:36.439Z,24.73
2023-11-30T13:58:05.601Z,21.50
2023-11-30T14:00:35.680Z,23.57
2023-11-30T14:03:05.511Z,25.40
2023-11-30T14:05:34.239Z,24.13
2023-11-30T14:08:03.700Z,22.87
2023-11-30T14:10:33.738Z,21.33
2023-11-30T14:13:03.966Z,23.83
2023-11-30T14:15:33.083Z,22.67
2023-11-30T14:18:01.812Z,23.37
2023-11-30T14:20:30.851Z,21.80
2023-11-30T14:22:59.981Z,22.80
2023-11-30T14:25:29.761Z,21.07
2023-11-30T14:28:04.938Z,22.73
2023-11-30T14:30:38.239Z,22.80
2023-11-30T14:33:09.735Z,24.63
2023-11-30T14:35:40.763Z,27.50
2023-11-30T14:38:09.625Z,24.47
2023-11-30T14:40:38.911Z,25.60
2023-11-30T14:43:09.170Z,28.63
2023-11-30T14:45:37.909Z,27.30
2023-11-30T14:48:07.734Z,25.83
2023-11-30T14:50:36.638Z,26.60
2023-11-30T14:53:06.095Z,26.27
2023-11-30T14:55:35.260Z,26.37
2023-11-30T14:58:05.142Z,25.20
2023-11-30T15:00:36.123Z,30.97
2023-11-30T15:03:10.764Z,27.50
2023-11-30T15:05:41.288Z,25.90
2023-11-30T15:08:10.160Z,28.73
2023-11-30T15:10:38.907Z,30.03
2023-11-30T15:13:07.609Z,29.33
2023-11-30T15:15:37.739Z,27.87
2023-11-30T15:18:06.649Z,31.33
2023-11-30T15:20:35.523Z,28.80
2023-11-30T15:23:04.227Z,28.80
2023-11-30T15:25:32.831Z,29.33
2023-11-30T15:28:01.878Z,31.37
2023-11-30T15:30:30.478Z,29.03
2023-11-30T15:33:00.495Z,35.13
2023-11-30T15:35:29.997Z,33.00
2023-11-30T15:38:00.421Z,36.23
2023-11-30T15:40:29.157Z,36.43
2023-11-30T15:42:57.879Z,35.70
2023-11-30T15:45:28.365Z,31.03
2023-11-30T15:47:57.150Z,32.53
2023-11-30T15:50:27.276Z,31.67
2023-11-30T15:52:56.188Z,30.90
2023-11-30T15:55:24.767Z,34.13
2023-11-30T15:57:53.538Z,32.70
2023-11-30T16:00:22.710Z,31.90
2023-11-30T16:02:52.402Z,33.83
2023-11-30T16:05:22.998Z,33.83
2023-11-30T16:07:53.094Z,34.30
2023-11-30T16:10:21.772Z,35.77
2023-11-30T16:12:50.810Z,33.97
2023-11-30T16:15:19.902Z,35.50
2023-11-30T16:17:53.629Z,39.57
2023-11-30T16:20:22.395Z,40.67
2023-11-30T16:22:52.647Z,40.20
2023-11-30T16:25:21.541Z,43.63
2023-11-30T16:27:50.289Z,37.00
2023-11-30T16:30:19.982Z,41.20
2023-11-30T16:32:48.634Z,42.33
2023-11-30T16:35:17.604Z,41.53
2023-11-30T16:37:49.559Z,40.90
2023-11-30T16:40:19.797Z,45.00
2023-11-30T16:42:49.046Z,40.97
2023-11-30T16:45:17.929Z,43.00
2023-11-30T16:47:46.841Z,44.93
2023-11-30T16:50:16.073Z,45.53
2023-11-30T16:52:49.086Z,43.53
2023-11-30T16:55:19.334Z,42.83
2023-11-30T16:57:48.051Z,43.37
2023-11-30T17:00:18.536Z,44.53
2023-11-30T17:02:48.220Z,43.20
2023-11-30T17:05:17.257Z,42.57
2023-11-30T17:07:47.148Z,47.20
2023-11-30T17:10:16.122Z,44.40
2023-11-30T17:12:46.913Z,51.90
2023-11-30T17:15:15.985Z,47.07
2023-11-30T17:17:47.296Z,48.50
2023-11-30T17:20:16.071Z,50.53
2023-11-30T17:22:47.190Z,51.70
2023-11-30T17:25:15.847Z,46.27
2023-11-30T17:27:45.962Z,45.57
2023-11-30T17:30:16.452Z,46.87
2023-11-30T17:32:45.336Z,42.23
2023-11-30T17:35:14.457Z,42.43
2023-11-30T17:37:43.140Z,45.77
2023-11-30T17:40:13.028Z,47.77
2023-11-30T17:42:41.774Z,49.43
2023-11-30T17:45:12.232Z,43.33
2023-11-30T17:47:41.078Z,45.47
2023-11-30T17:50:10.851Z,43.87
2023-11-30T17:52:39.589Z,44.13
2023-11-30T17:55:08.450Z,43.37
2023-11-30T17:57:37.153Z,47.00
2023-11-30T18:00:07.132Z,41.60
2023-11-30T18:02:37.224Z,44.50
2023-11-30T18:05:06.347Z,42.90
2023-11-30T18:07:35.055Z,47.17
2023-11-30T18:10:04.367Z,48.60
2023-11-30T18:12:33.217Z,48.47
2023-11-30T18:15:04.087Z,48.00
2023-11-30T18:17:33.537Z,54.30
2023-11-30T18:20:03.658Z,52.67
2023-11-30T18:22:34.335Z,53.53
2023-11-30T18:25:03.243Z,52.33
2023-11-30T18:27:32.260Z,51.17
2023-11-30T18:30:01.011Z,52.03
2023-11-30T18:32:29.690Z,49.57
2023-11-30T18:34:58.619Z,51.67
2023-11-30T18:37:29.570Z,55.77
2023-11-30T18:39:58.768Z,50.60
2023-11-30T18:42:27.987Z,51.77
2023-11-30T18:44:57.306Z,51.20
2023-11-30T18:47:26.109Z,54.33
2023-11-30T18:49:55.046Z,51.60
2023-11-30T18:52:23.745Z,52.73
2023-11-30T18:54:55.838Z,50.93
2023-11-30T18:57:24.841Z,51.13
2023-11-30T18:59:53.816Z,51.40
2023-11-30T19:02:22.902Z,52.13
2023-11-30T19:04:51.737Z,60.40
2023-11-30T19:07:20.514Z,55.83
2023-11-30T19:09:52.113Z,54.90
2023-11-30T19:12:24.915Z,52.97
2023-11-30T19:14:53.728Z,51.70
2023-11-30T19:17:22.414Z,54.07
2023-11-30T19:19:51.115Z,59.13
2023-11-30T19:22:20.072Z,57.33
2023-11-30T19:24:49.054Z,49.17
2023-11-30T19:27:18.014Z,50.53
2023-11-30T19:29:48.258Z,55.97
2023-11-30T19:32:16.975Z,55.67
2023-11-30T19:34:45.614Z,55.80
2023-11-30T19:37:14.546Z,55.73
2023-11-30T19:39:47.793Z,52.90
2023-11-30T19:42:16.596Z,66.20
2023-11-30T19:44:45.233Z,67.27
2023-11-30T19:47:15.462Z,68.60
2023-11-30T19:49:50.998Z,61.63
2023-11-30T19:57:19.480Z,63.83
2023-11-30T20:00:42.100Z,72.20
2023-11-30T20:03:14.153Z,64.50
2023-11-30T20:05:42.782Z,69.30
2023-11-30T20:08:11.554Z,74.53
2023-11-30T20:10:40.399Z,72.70
2023-11-30T20:13:09.117Z,64.63
2023-11-30T20:15:37.985Z,60.47
2023-11-30T20:18:07.359Z,62.47
2023-11-30T20:20:39.639Z,62.30
2023-11-30T20:23:08.479Z,71.40
2023-11-30T20:25:37.422Z,63.37
2023-11-30T20:28:06.414Z,65.33
2023-11-30T20:30:35.542Z,66.73
2023-11-30T20:33:04.297Z,63.80
2023-11-30T20:35:33.681Z,65.03
2023-11-30T20:38:03.818Z,73.33
2023-11-30T20:40:32.557Z,70.87
2023-11-30T20:49:27.440Z,73.57
2023-11-30T20:51:56.067Z,72.20
2023-11-30T20:54:26.240Z,70.63
2023-11-30T20:56:55.979Z,75.00
2023-11-30T20:59:25.765Z,72.03
2023-11-30T21:13:04.632Z,74.80
2023-11-30T21:15:33.446Z,74.03
2023-11-30T21:18:02.362Z,78.77
2023-11-30T21:20:34.740Z,79.30
2023-11-30T21:23:03.743Z,78.90
2023-11-30T21:25:32.527Z,80.77
2023-11-30T21:28:02.767Z,79.07
2023-11-30T21:30:31.834Z,82.07
2023-11-30T21:33:00.773Z,82.90
2023-11-30T21:35:30.976Z,85.37
2023-11-30T21:37:59.737Z,79.63
2023-11-30T21:40:32.967Z,79.33
2023-11-30T21:43:03.392Z,76.07
2023-11-30T21:45:32.172Z,80.93
2023-11-30T21:48:01.264Z,78.20
2023-11-30T21:50:30.232Z,79.83
2023-11-30T21:52:59.189Z,77.67
2023-11-30T21:55:28.366Z,78.23
2023-11-30T21:57:57.206Z,79.13
2023-11-30T22:00:27.593Z,85.23
2023-11-30T22:02:56.678Z,89.40
2023-11-30T22:05:30.940Z,86.40
2023-11-30T22:08:05.281Z,89.27
2023-11-30T22:10:34.225Z,82.50
2023-11-30T22:13:03.182Z,84.63
2023-11-30T22:15:33.469Z,84.00
2023-11-30T22:18:04.928Z,81.13
2023-11-30T22:20:33.782Z,87.83
2023-11-30T22:23:02.513Z,85.33
2023-11-30T22:25:31.261Z,87.70
2023-11-30T22:28:00.135Z,90.27
2023-11-30T22:30:29.052Z,88.93
2023-11-30T22:32:59.417Z,90.63
2023-11-30T22:35:28.954Z,90.57
2023-11-30T22:37:57.876Z,91.03
2023-11-30T22:40:27.463Z,93.20
2023-11-30T22:42:56.293Z,87.07
2023-11-30T22:45:25.305Z,87.60
2023-11-30T22:47:54.695Z,89.07
2023-11-30T22:50:25.717Z,88.60
2023-11-30T22:52:54.814Z,101.33
2023-11-30T22:55:24.356Z,88.33
2023-11-30T22:57:54.482Z,91.97
2023-11-30T23:00:25.635Z,90.70
2023-11-30T23:02:55.183Z,85.57
2023-11-30T23:05:26.048Z,87.50
2023-11-30T23:07:54.985Z,89.37
2023-11-30T23:10:23.758Z,81.83
2023-11-30T23:12:53.880Z,84.47
2023-11-30T23:15:22.864Z,81.40
2023-11-30T23:17:51.804Z,86.10
2023-11-30T23:20:21.293Z,89.07
2023-11-30T23:22:51.724Z,87.83
2023-11-30T23:25:20.869Z,85.03
2023-11-30T23:27:49.994Z,85.20
2023-11-30T23:30:19.123Z,85.40
2023-11-30T23:32:50.674Z,87.93
2023-11-30T23:35:21.320Z,86.93
2023-11-30T23:37:51.724Z,86.83
2023-11-30T23:40:21.116Z,90.20
2023-11-30T23:42:49.870Z,88.17
2023-11-30T23:45:18.830Z,110.70
2023-11-30T23:47:47.810Z,103.60
2023-11-30T23:50:17.021Z,93.63
2023-11-30T23:52:46.950Z,95.67
2023-11-30T23:55:17.502Z,92.37
2023-11-30T23:57:47.451Z,92.50
